METAR Data
IDs: Format: Raw Decoded Include TAF

Data at: 0312 UTC 25 Jan 2020

PAMM 250256Z AUTO 11003KT 8SM OVC048 04/02 A2957 RMK AO2 SLP003 T00390022 51025 $
PAMM 250156Z AUTO 00000KT 10SM OVC055 04/02 A2955 RMK AO2 SLP998 T00440017 $
PAMM 250056Z AUTO 22009KT 10SM OVC055 05/02 A2953 RMK AO2 SLP990 T00500017 $
PAMM 242356Z AUTO 22010KT 10SM OVC050 06/02 A2949 RMK AO2 SLP978 60039 T00560022 10078 20056 52029 $
PAMM 242256Z AUTO 21007KT 10SM OVC048 06/03 A2946 RMK AO2 RAE27 SLP968 P0001 T00560033 $
PAMM 242217Z AUTO 22008KT 10SM -RA FEW022 BKN036 OVC046 06/04 A2945 RMK AO2 P0001 $
PAMM 242156Z AUTO 20005KT 10SM -RA BKN021 BKN027 OVC038 06/04 A2944 RMK AO2 SLP960 P0001 T00560044 $
PAMM 242125Z AUTO 22009KT 8SM -RA SCT009 BKN015 OVC021 06/06 A2942 RMK AO2 P0001 $
PAMM 242106Z AUTO 21008KT 4SM -RA BR BKN009 OVC017 07/06 A2941 RMK AO2 CIG 005V013 P0001 $
PAMM 242101Z AUTO 21008KT 2SM -RA BR SCT007 OVC014 07/06 A2941 RMK AO2 P0001 $
PAMM 242056Z AUTO 21008KT 1 1/4SM -RA BR SCT007 BKN011 OVC016 07/06 A2941 RMK AO2 SLP949 P0003 60037 T00670061 53014 $
PAMM 242054Z AUTO 21009G14KT 1SM -RA BR SCT005 BKN010 OVC016 07/06 A2941 RMK AO2 CIG 008V014 P0003 $
PAMM 242048Z AUTO 21008G14KT 1SM -RA BR BKN005 OVC011 07/06 A2940 RMK AO2 CIG 004V008 P0003 $
PAMM 242038Z AUTO 20010G18KT 2SM -RA BR OVC005 07/07 A2940 RMK AO2 CIG 004V010 P0002 $
PAMM 242003Z AUTO 18012G20KT 1 3/4SM -RA BR OVC005 07/07 A2939 RMK AO2 VIS 1 1/4V2 1/2 CIG 004V008 P0000 $
PAMM 241956Z AUTO 18010G20KT 130V220 2 1/2SM -RA BR OVC007 07/07 A2938 RMK AO2 PK WND 14026/1901 CIG 004V009 SLP941 P0012 T00720067 $
PAMM 241856Z AUTO 18014G26KT 4SM RA BR OVC007 07/07 A2937 RMK AO2 PK WND 16028/1800 CIG 006V012 SLP935 P0022 T00720067 $
PAMM 241756Z AUTO 15013G28KT 110V180 6SM -RA BR OVC013 08/06 A2934 RMK AO2 PK WND 14031/1702 SLP927 P0010 60050 T00780061 10078 20078 55003 $
PAMM 241556Z AUTO 15015G26KT 8SM RA OVC013 08/06 A2934 RMK AO2 PK WND 14028/1544 SLP927 P0007 T00780061 $
PAMM 241440Z AUTO 16012G20KT 8SM RA SCT015 BKN027 OVC035 08/06 A2936 RMK AO2 P0009 $
PAMM 241356Z AUTO 15011G20KT 8SM RA OVC013 08/06 A2937 RMK AO2 SLP936 P0014 T00780061 $
PAMM 241156Z AUTO 16008G19KT 9SM -RA OVC013 08/07 A2940 RMK AO2 SLP947 P0005 60058 70125 T00780067 10083 20072 58009 $
PAMM 240956Z AUTO 16015G23KT 140V210 8SM -RA OVC013 08/06 A2943 RMK AO2 SLP955 P0012 T00780061 $
PAMM 240856Z AUTO 15012G21KT 7SM RA OVC013 08/06 A2943 RMK AO2 SLP958 P0013 60037 T00780061 58007 $
PAMM 240840Z AUTO 16009G17KT 8SM RA OVC013 08/06 A2944 RMK AO2 P0009 $
PAMM 240810Z AUTO 17012G17KT 7SM -RA OVC016 08/06 A2944 RMK AO2 P0003 $
PAMM 240526Z AUTO 16009G19KT 130V190 6SM RA BR OVC008 08/07 A2946 RMK AO2 CIG 007V011 P0007 $
PAMM 240456Z AUTO 17013G19KT 140V200 7SM RA OVC013 07/06 A2947 RMK AO2 SLP971 P0018 T00720061 $
PAMM 240431Z AUTO 16010G22KT 120V240 9SM RA OVC013 08/06 A2947 RMK AO2 P0009 $
PAMM 240356Z AUTO 15010G18KT 8SM RA OVC017 08/06 A2948 RMK AO2 SLP973 P0010 T00780061 $
PAMM 240256Z AUTO 14009KT 110V180 10SM -RA BKN017 BKN021 OVC027 08/06 A2949 RMK AO2 SLP977 P0006 60012 T00780061 58009 $
PAMM 240156Z AUTO 16010G17KT 130V200 10SM -RA OVC006 07/07 A2950 RMK AO2 SLP982 P0005 T00720067 $
PAMM 240143Z AUTO 16008G15KT 10SM -RA OVC006 07/07 A2951 RMK AO2 P0003 $
PAMM 240056Z AUTO 16010G15KT 9SM -RA OVC004 07/07 A2951 RMK AO2 RAB2357 SLP984 P0001 T00720067 $
PAMM 232356Z AUTO 15007G16KT 5SM BR OVC004 07/07 A2952 RMK AO2 SLP986 60001 T00720067 10078 20072 51007 $
PAMM 232314Z AUTO 16009G16KT 8SM OVC004 07/07 A2951 RMK AO2 $
PAMM 232256Z AUTO 16007G14KT 10SM OVC006 07/07 A2951 RMK AO2 SLP985 T00720067 $
PAMM 232156Z AUTO 16009KT 10SM BKN006 OVC049 07/07 A2950 RMK AO2 CIG 005V009 SLP982 T00720067 $
PAMM 232056Z AUTO 17009G17KT 130V190 10SM OVC006 07/07 A2950 RMK AO2 RAB17E32 SLP979 P0000 60001 T00720067 51019 $
PAMM 231956Z AUTO 16009G16KT 10SM BKN008 OVC050 07/07 A2949 RMK AO2 RAE03B20E32 SLP975 P0000 T00720067 $
PAMM 231856Z AUTO 16012G17KT 10SM -RA BKN008 OVC034 07/07 A2947 RMK AO2 SLP969 P0001 T00720067 $
PAMM 231756Z AUTO 16010G15KT 10SM -RA OVC006 07/06 A2944 RMK AO2 RAE20B56 SLP960 P0000 60014 T00720061 10078 20072 53021 $
PAMM 231656Z AUTO 17009G14KT 140V210 9SM -RA OVC006 07/07 A2942 RMK AO2 SLP953 P0007 T00720067 $
PAMM 231556Z AUTO 17008G16KT 9SM -RA OVC006 07/07 A2940 RMK AO2 SLP946 P0003 T00720067 $